»·PEaware :: N9915H KWHP-KCRQ

N9915H :: KWHP-KCRQ

FLIGHT INFORMATION

Flight Status: Arrived
Operator: Privately registered:
United States
More flights under this callsign
Pilot: Charlton B. (28558)
Aircraft: BEECH AIRCRAFT BONANZA
(BE36)
More flights by this aircraft type
Origin: KWHP Whiteman
United States
Destination: KCRQ McClellan-Palomar
United States
More flights between these airports :: More routes between these airports
Route: +
File this flight plan on PilotEdge
Remarks:
Altitude:
(Current/Filed)
6,500ft
Speed:
(Current/Filed)
0kts
Departed: 17-Sep-20 12:41 PM
Arrived: 17-Sep-20 01:34 PM
Distance/Time
Traveled:
89nm/0:52
Distance/Time
To Go:
Arrived

Flight Plot

Page will automatically refresh every two minutes.


Map Options




Map Legend


Flown Route
Filed Route
Departure Airport
Arrival Airport
Navaid (VOR, NDB)
Fix

Horizontal Profiles

Position Reports

Time Latitude Longitude Heading Altitude Ground
Speed
17-Sep-20 12:32 34.260365 -118.413368 319 996ft 0kts
17-Sep-20 12:33 34.260365 -118.413368 319 996ft 0kts
17-Sep-20 12:34 34.262263 -118.415929 321 1001ft 21kts
17-Sep-20 12:35 34.263629 -118.417113 255 1001ft 0kts
17-Sep-20 12:36 34.263629 -118.417113 255 1001ft 0kts
17-Sep-20 12:37 34.263629 -118.417113 255 1001ft 0kts
17-Sep-20 12:39 34.263179 -118.417580 139 999ft 0kts
17-Sep-20 12:40 34.235397 -118.393308 158 2275ft 105kts
17-Sep-20 12:41 34.203171 -118.377316 155 2526ft 131kts
17-Sep-20 12:42 34.171277 -118.378913 232 2532ft 132kts
17-Sep-20 12:43 34.152293 -118.416142 250 2777ft 115kts
17-Sep-20 12:44 34.143165 -118.449811 250 3742ft 95kts
17-Sep-20 12:45 34.134867 -118.481042 250 4837ft 98kts
17-Sep-20 12:46 34.127080 -118.510884 250 5531ft 96kts
17-Sep-20 12:47 34.102497 -118.517081 155 5535ft 144kts
17-Sep-20 12:48 34.063085 -118.496591 156 5517ft 155kts
17-Sep-20 12:49 34.023124 -118.476747 156 5515ft 157kts
17-Sep-20 12:51 33.981668 -118.456064 158 5509ft 165kts
17-Sep-20 12:52 33.938545 -118.435195 159 5502ft 167kts
17-Sep-20 12:53 33.903118 -118.398716 138 5497ft 167kts
17-Sep-20 12:54 33.867912 -118.362041 142 5498ft 167kts
17-Sep-20 12:55 33.831223 -118.327905 143 5500ft 166kts
17-Sep-20 12:56 33.795275 -118.292853 139 5503ft 166kts
17-Sep-20 12:57 33.761368 -118.255105 138 5508ft 166kts
17-Sep-20 12:58 33.726279 -118.219211 150 5510ft 165kts
17-Sep-20 12:59 33.692254 -118.181629 132 5527ft 166kts
17-Sep-20 13:00 33.662071 -118.137374 129 5529ft 177kts
17-Sep-20 13:01 33.631252 -118.090260 128 5528ft 180kts
17-Sep-20 13:02 33.600391 -118.042836 128 5527ft 180kts
17-Sep-20 13:03 33.569420 -117.995323 128 5524ft 180kts
17-Sep-20 13:03 33.543597 -117.955741 128 5522ft 181kts
17-Sep-20 13:05 33.507459 -117.900438 128 5520ft 181kts
17-Sep-20 13:06 33.476395 -117.852961 128 5519ft 181kts
17-Sep-20 13:06 33.450550 -117.813476 128 5517ft 181kts
17-Sep-20 13:07 33.419424 -117.765984 129 5511ft 181kts
17-Sep-20 13:09 33.383254 -117.710702 129 5505ft 181kts
17-Sep-20 13:09 33.357344 -117.671299 129 5500ft 180kts
17-Sep-20 13:10 33.326283 -117.624115 130 5495ft 179kts
17-Sep-20 13:11 33.295428 -117.577342 130 5491ft 178kts
17-Sep-20 13:13 33.262314 -117.527089 130 5487ft 148kts
17-Sep-20 13:13 33.242092 -117.496490 130 5494ft 139kts
17-Sep-20 13:14 33.218056 -117.460150 130 5506ft 139kts
17-Sep-20 13:15 33.193847 -117.423583 130 5509ft 140kts
17-Sep-20 13:16 33.173085 -117.388266 101 5509ft 124kts
17-Sep-20 13:17 33.182991 -117.341414 75 4620ft 166kts
17-Sep-20 13:18 33.194476 -117.291670 75 4510ft 149kts
17-Sep-20 13:19 33.205437 -117.243911 76 4518ft 156kts
17-Sep-20 13:20 33.215960 -117.191157 77 4516ft 167kts
17-Sep-20 13:21 33.226676 -117.136627 77 4517ft 169kts
17-Sep-20 13:22 33.236924 -117.084990 77 3757ft 148kts
17-Sep-20 13:23 33.246355 -117.036793 77 3515ft 150kts
17-Sep-20 13:24 33.230193 -117.007403 214 3521ft 135kts
17-Sep-20 13:25 33.204226 -117.039937 227 3517ft 136kts
17-Sep-20 13:26 33.177848 -117.072337 227 3314ft 135kts
17-Sep-20 13:27 33.156132 -117.108584 257 3233ft 127kts
17-Sep-20 13:28 33.150257 -117.144316 258 2632ft 105kts
17-Sep-20 13:29 33.144643 -117.178984 258 2035ft 107kts
17-Sep-20 13:30 33.138977 -117.214018 259 1412ft 108kts
17-Sep-20 13:31 33.133392 -117.248540 259 806ft 98kts
17-Sep-20 13:32 33.128793 -117.276055 261 335ft 56kts
17-Sep-20 13:33 33.127665 -117.278595 82 335ft 16kts
17-Sep-20 13:34 33.127581 -117.276413 270 335ft 0kts

Navigation Log

Ident Type
Flight plan parsing failed, navigation log unavailable